sensor_id;sensor_type;location;lat;lon;timestamp;P1;durP1;ratioP1;P2;durP2;ratioP2
16922;SDS011;8578;50.938;13.556;2024-02-14T00:01:00;2.87;;;1.50;;
16922;SDS011;8578;50.938;13.556;2024-02-14T00:03:27;1.43;;;1.10;;
16922;SDS011;8578;50.938;13.556;2024-02-14T00:05:56;2.10;;;1.20;;
16922;SDS011;8578;50.938;13.556;2024-02-14T00:08:24;1.87;;;1.30;;
16922;SDS011;8578;50.938;13.556;2024-02-14T00:10:51;2.00;;;1.57;;
16922;SDS011;8578;50.938;13.556;2024-02-14T00:13:19;2.90;;;1.50;;
16922;SDS011;8578;50.938;13.556;2024-02-14T00:15:46;2.30;;;1.30;;
16922;SDS011;8578;50.938;13.556;2024-02-14T00:18:14;1.60;;;1.13;;
16922;SDS011;8578;50.938;13.556;2024-02-14T00:20:42;1.60;;;1.10;;
16922;SDS011;8578;50.938;13.556;2024-02-14T00:23:11;3.80;;;1.93;;
16922;SDS011;8578;50.938;13.556;2024-02-14T00:25:39;1.43;;;1.10;;
16922;SDS011;8578;50.938;13.556;2024-02-14T00:28:07;1.57;;;1.10;;
16922;SDS011;8578;50.938;13.556;2024-02-14T00:30:34;4.27;;;1.27;;
16922;SDS011;8578;50.938;13.556;2024-02-14T00:33:02;3.87;;;1.37;;
16922;SDS011;8578;50.938;13.556;2024-02-14T00:35:30;1.27;;;0.97;;
16922;SDS011;8578;50.938;13.556;2024-02-14T00:37:57;3.50;;;1.20;;
16922;SDS011;8578;50.938;13.556;2024-02-14T00:40:26;1.80;;;1.10;;
16922;SDS011;8578;50.938;13.556;2024-02-14T00:42:55;4.90;;;1.17;;
16922;SDS011;8578;50.938;13.556;2024-02-14T00:45:23;2.03;;;1.10;;
16922;SDS011;8578;50.938;13.556;2024-02-14T00:47:51;3.63;;;1.10;;
16922;SDS011;8578;50.938;13.556;2024-02-14T00:50:19;1.63;;;1.10;;
16922;SDS011;8578;50.938;13.556;2024-02-14T00:52:47;3.30;;;1.13;;
16922;SDS011;8578;50.938;13.556;2024-02-14T00:55:15;2.87;;;1.17;;
16922;SDS011;8578;50.938;13.556;2024-02-14T00:57:45;2.57;;;1.10;;
16922;SDS011;8578;50.938;13.556;2024-02-14T01:00:13;2.30;;;1.00;;
16922;SDS011;8578;50.938;13.556;2024-02-14T01:02:40;2.13;;;0.90;;
16922;SDS011;8578;50.938;13.556;2024-02-14T01:05:08;1.77;;;1.10;;
16922;SDS011;8578;50.938;13.556;2024-02-14T01:07:36;3.53;;;1.20;;
16922;SDS011;8578;50.938;13.556;2024-02-14T01:10:03;2.97;;;1.17;;
16922;SDS011;8578;50.938;13.556;2024-02-14T01:12:31;2.00;;;1.00;;
16922;SDS011;8578;50.938;13.556;2024-02-14T01:15:00;2.77;;;1.10;;
16922;SDS011;8578;50.938;13.556;2024-02-14T01:17:27;1.33;;;0.80;;
16922;SDS011;8578;50.938;13.556;2024-02-14T01:19:55;1.63;;;1.00;;
16922;SDS011;8578;50.938;13.556;2024-02-14T01:22:25;2.07;;;1.07;;
16922;SDS011;8578;50.938;13.556;2024-02-14T01:24:53;3.77;;;1.50;;
16922;SDS011;8578;50.938;13.556;2024-02-14T01:27:20;2.60;;;1.03;;
16922;SDS011;8578;50.938;13.556;2024-02-14T01:29:50;3.10;;;1.30;;
16922;SDS011;8578;50.938;13.556;2024-02-14T01:32:19;2.27;;;1.17;;
16922;SDS011;8578;50.938;13.556;2024-02-14T01:34:46;2.50;;;1.37;;
16922;SDS011;8578;50.938;13.556;2024-02-14T01:37:15;3.27;;;1.20;;
16922;SDS011;8578;50.938;13.556;2024-02-14T01:39:44;2.77;;;1.00;;
16922;SDS011;8578;50.938;13.556;2024-02-14T01:42:12;2.13;;;1.10;;
16922;SDS011;8578;50.938;13.556;2024-02-14T01:44:39;1.50;;;1.17;;
16922;SDS011;8578;50.938;13.556;2024-02-14T01:47:07;2.70;;;1.20;;
16922;SDS011;8578;50.938;13.556;2024-02-14T01:49:37;2.60;;;1.30;;
16922;SDS011;8578;50.938;13.556;2024-02-14T01:52:05;1.63;;;1.00;;
16922;SDS011;8578;50.938;13.556;2024-02-14T01:54:32;1.37;;;1.00;;
16922;SDS011;8578;50.938;13.556;2024-02-14T01:57:01;2.73;;;1.00;;
16922;SDS011;8578;50.938;13.556;2024-02-14T01:59:29;1.90;;;1.10;;
16922;SDS011;8578;50.938;13.556;2024-02-14T02:01:57;2.13;;;1.10;;
16922;SDS011;8578;50.938;13.556;2024-02-14T02:04:25;3.17;;;1.20;;
16922;SDS011;8578;50.938;13.556;2024-02-14T02:06:55;2.60;;;1.00;;
16922;SDS011;8578;50.938;13.556;2024-02-14T02:09:23;2.37;;;0.90;;
16922;SDS011;8578;50.938;13.556;2024-02-14T02:11:50;1.97;;;1.13;;
16922;SDS011;8578;50.938;13.556;2024-02-14T02:14:20;2.97;;;1.10;;
16922;SDS011;8578;50.938;13.556;2024-02-14T02:16:48;3.13;;;1.13;;
16922;SDS011;8578;50.938;13.556;2024-02-14T02:19:16;1.70;;;1.00;;
16922;SDS011;8578;50.938;13.556;2024-02-14T02:21:43;1.20;;;0.93;;
16922;SDS011;8578;50.938;13.556;2024-02-14T02:24:14;1.67;;;1.00;;
16922;SDS011;8578;50.938;13.556;2024-02-14T02:26:43;2.90;;;1.23;;
16922;SDS011;8578;50.938;13.556;2024-02-14T02:29:11;1.90;;;1.20;;
16922;SDS011;8578;50.938;13.556;2024-02-14T02:31:38;3.00;;;1.00;;
16922;SDS011;8578;50.938;13.556;2024-02-14T02:34:05;1.97;;;1.10;;
16922;SDS011;8578;50.938;13.556;2024-02-14T02:36:36;2.23;;;1.13;;
16922;SDS011;8578;50.938;13.556;2024-02-14T02:39:04;2.53;;;1.03;;
16922;SDS011;8578;50.938;13.556;2024-02-14T02:41:33;2.40;;;1.13;;
16922;SDS011;8578;50.938;13.556;2024-02-14T02:44:01;1.20;;;0.90;;
16922;SDS011;8578;50.938;13.556;2024-02-14T02:46:29;2.60;;;1.27;;
16922;SDS011;8578;50.938;13.556;2024-02-14T02:48:56;1.67;;;1.10;;
16922;SDS011;8578;50.938;13.556;2024-02-14T02:51:25;1.37;;;1.20;;
16922;SDS011;8578;50.938;13.556;2024-02-14T02:53:54;1.93;;;0.97;;
16922;SDS011;8578;50.938;13.556;2024-02-14T02:56:21;1.13;;;0.80;;
16922;SDS011;8578;50.938;13.556;2024-02-14T02:58:55;7.00;;;0.97;;
16922;SDS011;8578;50.938;13.556;2024-02-14T03:01:22;0.87;;;0.87;;
16922;SDS011;8578;50.938;13.556;2024-02-14T03:03:53;2.03;;;1.00;;
16922;SDS011;8578;50.938;13.556;2024-02-14T03:06:20;1.93;;;1.10;;
16922;SDS011;8578;50.938;13.556;2024-02-14T03:08:48;4.67;;;1.60;;
16922;SDS011;8578;50.938;13.556;2024-02-14T03:11:19;2.30;;;1.10;;
16922;SDS011;8578;50.938;13.556;2024-02-14T03:13:46;2.50;;;1.07;;
16922;SDS011;8578;50.938;13.556;2024-02-14T03:16:16;2.07;;;1.00;;
16922;SDS011;8578;50.938;13.556;2024-02-14T03:18:44;2.17;;;1.00;;
16922;SDS011;8578;50.938;13.556;2024-02-14T03:21:11;1.30;;;0.83;;
16922;SDS011;8578;50.938;13.556;2024-02-14T03:23:39;3.83;;;1.03;;
16922;SDS011;8578;50.938;13.556;2024-02-14T03:26:08;1.50;;;1.00;;
16922;SDS011;8578;50.938;13.556;2024-02-14T03:28:37;2.70;;;1.10;;
16922;SDS011;8578;50.938;13.556;2024-02-14T03:31:04;2.60;;;0.80;;
16922;SDS011;8578;50.938;13.556;2024-02-14T03:33:35;2.77;;;1.10;;
16922;SDS011;8578;50.938;13.556;2024-02-14T03:36:03;1.80;;;0.80;;
16922;SDS011;8578;50.938;13.556;2024-02-14T03:38:30;1.20;;;0.90;;
16922;SDS011;8578;50.938;13.556;2024-02-14T03:40:59;1.63;;;0.80;;
16922;SDS011;8578;50.938;13.556;2024-02-14T03:43:27;2.00;;;1.00;;
16922;SDS011;8578;50.938;13.556;2024-02-14T03:45:55;3.03;;;0.80;;
16922;SDS011;8578;50.938;13.556;2024-02-14T03:48:23;1.97;;;0.70;;
16922;SDS011;8578;50.938;13.556;2024-02-14T03:50:53;1.20;;;0.60;;
16922;SDS011;8578;50.938;13.556;2024-02-14T03:53:20;2.90;;;1.03;;
16922;SDS011;8578;50.938;13.556;2024-02-14T03:55:48;3.70;;;1.10;;
16922;SDS011;8578;50.938;13.556;2024-02-14T03:58:17;11.33;;;6.97;;
16922;SDS011;8578;50.938;13.556;2024-02-14T04:00:49;7.97;;;4.77;;
16922;SDS011;8578;50.938;13.556;2024-02-14T04:03:18;4.77;;;2.10;;
16922;SDS011;8578;50.938;13.556;2024-02-14T04:05:46;6.73;;;2.77;;
16922;SDS011;8578;50.938;13.556;2024-02-14T04:08:16;15.00;;;7.90;;
16922;SDS011;8578;50.938;13.556;2024-02-14T04:10:44;6.97;;;3.70;;
16922;SDS011;8578;50.938;13.556;2024-02-14T04:13:12;4.10;;;2.37;;
16922;SDS011;8578;50.938;13.556;2024-02-14T04:15:40;4.10;;;1.43;;
16922;SDS011;8578;50.938;13.556;2024-02-14T04:18:09;15.30;;;9.17;;
16922;SDS011;8578;50.938;13.556;2024-02-14T04:20:36;18.77;;;10.43;;
16922;SDS011;8578;50.938;13.556;2024-02-14T04:23:05;93.30;;;42.10;;
16922;SDS011;8578;50.938;13.556;2024-02-14T04:25:34;30.03;;;14.70;;
16922;SDS011;8578;50.938;13.556;2024-02-14T04:28:04;31.73;;;18.07;;
16922;SDS011;8578;50.938;13.556;2024-02-14T04:30:32;13.83;;;7.13;;
16922;SDS011;8578;50.938;13.556;2024-02-14T04:32:59;46.70;;;28.83;;
16922;SDS011;8578;50.938;13.556;2024-02-14T04:35:27;59.70;;;33.23;;
16922;SDS011;8578;50.938;13.556;2024-02-14T04:37:55;50.37;;;27.90;;
16922;SDS011;8578;50.938;13.556;2024-02-14T04:40:23;57.27;;;28.43;;
16922;SDS011;8578;50.938;13.556;2024-02-14T04:42:52;134.50;;;53.07;;
16922;SDS011;8578;50.938;13.556;2024-02-14T04:45:21;135.93;;;54.77;;
16922;SDS011;8578;50.938;13.556;2024-02-14T04:47:48;179.97;;;71.37;;
16922;SDS011;8578;50.938;13.556;2024-02-14T04:50:16;123.00;;;52.00;;
16922;SDS011;8578;50.938;13.556;2024-02-14T04:52:45;108.23;;;49.10;;
16922;SDS011;8578;50.938;13.556;2024-02-14T04:55:13;56.50;;;25.23;;
16922;SDS011;8578;50.938;13.556;2024-02-14T04:57:40;61.20;;;29.53;;
16922;SDS011;8578;50.938;13.556;2024-02-14T05:00:11;28.70;;;14.90;;
16922;SDS011;8578;50.938;13.556;2024-02-14T05:02:39;22.67;;;14.70;;
16922;SDS011;8578;50.938;13.556;2024-02-14T05:05:07;19.57;;;13.10;;
16922;SDS011;8578;50.938;13.556;2024-02-14T05:07:37;17.27;;;12.50;;
16922;SDS011;8578;50.938;13.556;2024-02-14T05:10:04;12.80;;;9.00;;
16922;SDS011;8578;50.938;13.556;2024-02-14T05:12:33;10.70;;;7.37;;
16922;SDS011;8578;50.938;13.556;2024-02-14T05:15:01;6.73;;;4.90;;
16922;SDS011;8578;50.938;13.556;2024-02-14T05:17:30;3.50;;;2.80;;
16922;SDS011;8578;50.938;13.556;2024-02-14T05:20:00;2.90;;;2.10;;
16922;SDS011;8578;50.938;13.556;2024-02-14T05:22:27;6.50;;;2.33;;
16922;SDS011;8578;50.938;13.556;2024-02-14T05:24:55;4.00;;;2.00;;
16922;SDS011;8578;50.938;13.556;2024-02-14T05:27:23;2.90;;;1.23;;
16922;SDS011;8578;50.938;13.556;2024-02-14T05:29:50;6.27;;;1.30;;
16922;SDS011;8578;50.938;13.556;2024-02-14T05:32:18;3.20;;;1.37;;
16922;SDS011;8578;50.938;13.556;2024-02-14T05:34:47;2.10;;;1.23;;
16922;SDS011;8578;50.938;13.556;2024-02-14T05:37:15;2.93;;;1.23;;
16922;SDS011;8578;50.938;13.556;2024-02-14T05:39:44;2.00;;;1.57;;
16922;SDS011;8578;50.938;13.556;2024-02-14T05:42:12;3.00;;;1.90;;
16922;SDS011;8578;50.938;13.556;2024-02-14T05:44:40;3.93;;;1.10;;
16922;SDS011;8578;50.938;13.556;2024-02-14T05:47:09;2.60;;;0.87;;
16922;SDS011;8578;50.938;13.556;2024-02-14T05:49:38;2.17;;;1.00;;
16922;SDS011;8578;50.938;13.556;2024-02-14T05:52:07;0.93;;;0.70;;
16922;SDS011;8578;50.938;13.556;2024-02-14T05:54:35;1.53;;;0.80;;
16922;SDS011;8578;50.938;13.556;2024-02-14T05:57:02;1.13;;;0.77;;
16922;SDS011;8578;50.938;13.556;2024-02-14T05:59:31;1.20;;;0.60;;
16922;SDS011;8578;50.938;13.556;2024-02-14T06:01:59;4.00;;;0.70;;
16922;SDS011;8578;50.938;13.556;2024-02-14T06:04:29;2.23;;;1.33;;
16922;SDS011;8578;50.938;13.556;2024-02-14T06:06:56;4.20;;;2.40;;
16922;SDS011;8578;50.938;13.556;2024-02-14T06:09:25;4.50;;;2.30;;
16922;SDS011;8578;50.938;13.556;2024-02-14T06:11:53;4.53;;;1.90;;
16922;SDS011;8578;50.938;13.556;2024-02-14T06:14:21;2.27;;;1.20;;
16922;SDS011;8578;50.938;13.556;2024-02-14T06:16:48;2.03;;;1.10;;
16922;SDS011;8578;50.938;13.556;2024-02-14T06:19:16;2.63;;;1.10;;
16922;SDS011;8578;50.938;13.556;2024-02-14T06:21:43;3.70;;;1.27;;
16922;SDS011;8578;50.938;13.556;2024-02-14T06:24:11;4.20;;;0.87;;
16922;SDS011;8578;50.938;13.556;2024-02-14T06:26:42;0.90;;;0.50;;
16922;SDS011;8578;50.938;13.556;2024-02-14T06:29:09;1.73;;;0.90;;
16922;SDS011;8578;50.938;13.556;2024-02-14T06:31:36;2.50;;;0.60;;
16922;SDS011;8578;50.938;13.556;2024-02-14T06:34:04;1.73;;;0.50;;
16922;SDS011;8578;50.938;13.556;2024-02-14T06:36:34;1.70;;;0.60;;
16922;SDS011;8578;50.938;13.556;2024-02-14T06:39:01;2.37;;;0.60;;
16922;SDS011;8578;50.938;13.556;2024-02-14T06:41:29;2.30;;;0.50;;
16922;SDS011;8578;50.938;13.556;2024-02-14T06:44:00;1.60;;;0.50;;
16922;SDS011;8578;50.938;13.556;2024-02-14T06:46:27;1.80;;;0.50;;
16922;SDS011;8578;50.938;13.556;2024-02-14T06:48:55;2.77;;;0.90;;
16922;SDS011;8578;50.938;13.556;2024-02-14T06:51:23;5.93;;;1.13;;
16922;SDS011;8578;50.938;13.556;2024-02-14T06:53:51;2.30;;;0.40;;
16922;SDS011;8578;50.938;13.556;2024-02-14T06:56:20;1.73;;;0.40;;
16922;SDS011;8578;50.938;13.556;2024-02-14T06:58:47;0.83;;;0.63;;
16922;SDS011;8578;50.938;13.556;2024-02-14T07:01:20;1.00;;;0.40;;
16922;SDS011;8578;50.938;13.556;2024-02-14T07:03:49;0.43;;;0.40;;
16922;SDS011;8578;50.938;13.556;2024-02-14T07:06:17;1.93;;;0.70;;
16922;SDS011;8578;50.938;13.556;2024-02-14T07:08:44;1.43;;;0.40;;
16922;SDS011;8578;50.938;13.556;2024-02-14T07:11:15;1.37;;;0.60;;
16922;SDS011;8578;50.938;13.556;2024-02-14T07:13:43;2.47;;;0.60;;
16922;SDS011;8578;50.938;13.556;2024-02-14T07:16:11;1.40;;;0.50;;
16922;SDS011;8578;50.938;13.556;2024-02-14T07:18:41;1.67;;;0.50;;
16922;SDS011;8578;50.938;13.556;2024-02-14T07:21:09;2.03;;;0.70;;
16922;SDS011;8578;50.938;13.556;2024-02-14T07:23:37;1.30;;;0.50;;
16922;SDS011;8578;50.938;13.556;2024-02-14T07:26:04;0.90;;;0.50;;
16922;SDS011;8578;50.938;13.556;2024-02-14T07:28:32;2.43;;;0.60;;
16922;SDS011;8578;50.938;13.556;2024-02-14T07:30:59;1.03;;;0.53;;
16922;SDS011;8578;50.938;13.556;2024-02-14T07:33:27;1.43;;;0.70;;
16922;SDS011;8578;50.938;13.556;2024-02-14T07:35:56;3.33;;;1.30;;
16922;SDS011;8578;50.938;13.556;2024-02-14T07:38:23;3.07;;;0.80;;
16922;SDS011;8578;50.938;13.556;2024-02-14T07:40:51;3.33;;;0.90;;
16922;SDS011;8578;50.938;13.556;2024-02-14T07:43:19;1.97;;;0.63;;
16922;SDS011;8578;50.938;13.556;2024-02-14T07:45:46;3.13;;;0.80;;
16922;SDS011;8578;50.938;13.556;2024-02-14T07:48:14;1.07;;;0.60;;
16922;SDS011;8578;50.938;13.556;2024-02-14T07:50:42;1.67;;;0.50;;
16922;SDS011;8578;50.938;13.556;2024-02-14T07:53:13;2.20;;;0.60;;
16922;SDS011;8578;50.938;13.556;2024-02-14T07:55:41;1.43;;;0.70;;
16922;SDS011;8578;50.938;13.556;2024-02-14T07:58:12;1.63;;;0.70;;
16922;SDS011;8578;50.938;13.556;2024-02-14T08:00:40;3.10;;;0.77;;
16922;SDS011;8578;50.938;13.556;2024-02-14T08:03:07;1.77;;;0.60;;
16922;SDS011;8578;50.938;13.556;2024-02-14T08:05:40;0.93;;;0.60;;
16922;SDS011;8578;50.938;13.556;2024-02-14T08:08:11;2.40;;;0.63;;
16922;SDS011;8578;50.938;13.556;2024-02-14T08:10:40;1.23;;;0.60;;
16922;SDS011;8578;50.938;13.556;2024-02-14T08:13:10;1.50;;;0.60;;
16922;SDS011;8578;50.938;13.556;2024-02-14T08:15:42;2.50;;;0.70;;
16922;SDS011;8578;50.938;13.556;2024-02-14T08:18:10;1.97;;;0.70;;
16922;SDS011;8578;50.938;13.556;2024-02-14T08:20:39;2.80;;;0.70;;
16922;SDS011;8578;50.938;13.556;2024-02-14T08:23:07;1.37;;;0.70;;
16922;SDS011;8578;50.938;13.556;2024-02-14T08:25:35;3.03;;;0.70;;
16922;SDS011;8578;50.938;13.556;2024-02-14T08:28:04;1.60;;;0.80;;
16922;SDS011;8578;50.938;13.556;2024-02-14T08:30:36;2.20;;;0.70;;
16922;SDS011;8578;50.938;13.556;2024-02-14T08:33:04;2.40;;;0.53;;
16922;SDS011;8578;50.938;13.556;2024-02-14T08:35:32;1.93;;;0.63;;
16922;SDS011;8578;50.938;13.556;2024-02-14T08:38:08;1.10;;;0.60;;
16922;SDS011;8578;50.938;13.556;2024-02-14T08:40:35;1.67;;;0.80;;
16922;SDS011;8578;50.938;13.556;2024-02-14T08:43:07;0.83;;;0.63;;
16922;SDS011;8578;50.938;13.556;2024-02-14T08:45:35;2.17;;;0.70;;
16922;SDS011;8578;50.938;13.556;2024-02-14T08:48:04;4.80;;;0.77;;
16922;SDS011;8578;50.938;13.556;2024-02-14T08:50:32;3.63;;;0.70;;
16922;SDS011;8578;50.938;13.556;2024-02-14T08:53:00;3.73;;;0.70;;
16922;SDS011;8578;50.938;13.556;2024-02-14T08:55:29;1.87;;;0.83;;
16922;SDS011;8578;50.938;13.556;2024-02-14T08:58:00;1.50;;;0.80;;
16922;SDS011;8578;50.938;13.556;2024-02-14T09:00:30;1.83;;;0.70;;
16922;SDS011;8578;50.938;13.556;2024-02-14T09:02:58;1.87;;;0.77;;
16922;SDS011;8578;50.938;13.556;2024-02-14T09:05:27;0.97;;;0.53;;
16922;SDS011;8578;50.938;13.556;2024-02-14T09:08:00;3.63;;;0.83;;
16922;SDS011;8578;50.938;13.556;2024-02-14T09:10:28;3.37;;;1.40;;
16922;SDS011;8578;50.938;13.556;2024-02-14T09:13:03;5.57;;;1.20;;
16922;SDS011;8578;50.938;13.556;2024-02-14T09:15:32;1.90;;;0.73;;
16922;SDS011;8578;50.938;13.556;2024-02-14T09:17:59;2.57;;;0.70;;
16922;SDS011;8578;50.938;13.556;2024-02-14T09:20:29;1.17;;;0.70;;
16922;SDS011;8578;50.938;13.556;2024-02-14T09:22:57;2.53;;;0.63;;
16922;SDS011;8578;50.938;13.556;2024-02-14T09:25:26;1.30;;;0.73;;
16922;SDS011;8578;50.938;13.556;2024-02-14T09:27:56;1.67;;;0.80;;
16922;SDS011;8578;50.938;13.556;2024-02-14T09:30:26;2.53;;;0.70;;
16922;SDS011;8578;50.938;13.556;2024-02-14T09:33:05;1.47;;;0.60;;
16922;SDS011;8578;50.938;13.556;2024-02-14T09:35:34;4.03;;;0.70;;
16922;SDS011;8578;50.938;13.556;2024-02-14T09:38:08;0.90;;;0.57;;
16922;SDS011;8578;50.938;13.556;2024-02-14T09:40:35;3.90;;;0.80;;
16922;SDS011;8578;50.938;13.556;2024-02-14T09:43:03;2.20;;;0.70;;
16922;SDS011;8578;50.938;13.556;2024-02-14T09:45:32;4.03;;;1.10;;
16922;SDS011;8578;50.938;13.556;2024-02-14T09:48:00;1.97;;;0.80;;
16922;SDS011;8578;50.938;13.556;2024-02-14T09:50:30;0.97;;;0.63;;
16922;SDS011;8578;50.938;13.556;2024-02-14T09:52:59;1.20;;;0.60;;
16922;SDS011;8578;50.938;13.556;2024-02-14T09:55:27;0.90;;;0.67;;
16922;SDS011;8578;50.938;13.556;2024-02-14T09:57:54;3.33;;;1.03;;
16922;SDS011;8578;50.938;13.556;2024-02-14T10:00:22;1.53;;;0.50;;
16922;SDS011;8578;50.938;13.556;2024-02-14T10:02:49;0.87;;;0.50;;
16922;SDS011;8578;50.938;13.556;2024-02-14T10:05:18;1.07;;;0.50;;
16922;SDS011;8578;50.938;13.556;2024-02-14T10:07:47;1.03;;;0.60;;
16922;SDS011;8578;50.938;13.556;2024-02-14T10:10:15;1.47;;;0.50;;
16922;SDS011;8578;50.938;13.556;2024-02-14T10:12:44;0.77;;;0.60;;
16922;SDS011;8578;50.938;13.556;2024-02-14T10:15:12;0.80;;;0.50;;
16922;SDS011;8578;50.938;13.556;2024-02-14T10:17:43;1.07;;;0.60;;
16922;SDS011;8578;50.938;13.556;2024-02-14T10:20:16;1.10;;;0.60;;
16922;SDS011;8578;50.938;13.556;2024-02-14T10:22:44;0.80;;;0.53;;
16922;SDS011;8578;50.938;13.556;2024-02-14T10:25:14;2.00;;;0.70;;
16922;SDS011;8578;50.938;13.556;2024-02-14T10:27:41;3.27;;;0.90;;
16922;SDS011;8578;50.938;13.556;2024-02-14T10:30:09;0.70;;;0.50;;
16922;SDS011;8578;50.938;13.556;2024-02-14T10:32:37;1.67;;;0.73;;
16922;SDS011;8578;50.938;13.556;2024-02-14T10:35:07;3.23;;;0.70;;
16922;SDS011;8578;50.938;13.556;2024-02-14T10:37:37;1.53;;;0.60;;
16922;SDS011;8578;50.938;13.556;2024-02-14T10:40:06;1.57;;;0.50;;
16922;SDS011;8578;50.938;13.556;2024-02-14T10:42:38;0.80;;;0.60;;
16922;SDS011;8578;50.938;13.556;2024-02-14T10:45:06;1.47;;;0.60;;
16922;SDS011;8578;50.938;13.556;2024-02-14T10:47:35;1.20;;;0.67;;
16922;SDS011;8578;50.938;13.556;2024-02-14T10:50:03;2.07;;;0.60;;
16922;SDS011;8578;50.938;13.556;2024-02-14T10:52:34;0.90;;;0.50;;
16922;SDS011;8578;50.938;13.556;2024-02-14T10:55:03;1.37;;;0.60;;
16922;SDS011;8578;50.938;13.556;2024-02-14T10:57:34;0.93;;;0.60;;
16922;SDS011;8578;50.938;13.556;2024-02-14T11:00:06;1.73;;;0.70;;
16922;SDS011;8578;50.938;13.556;2024-02-14T11:02:35;0.90;;;0.50;;
16922;SDS011;8578;50.938;13.556;2024-02-14T11:05:04;0.87;;;0.57;;
16922;SDS011;8578;50.938;13.556;2024-02-14T11:07:35;1.07;;;0.40;;
16922;SDS011;8578;50.938;13.556;2024-02-14T11:10:07;0.93;;;0.40;;
16922;SDS011;8578;50.938;13.556;2024-02-14T11:12:35;1.33;;;0.60;;
16922;SDS011;8578;50.938;13.556;2024-02-14T11:15:15;0.60;;;0.60;;
16922;SDS011;8578;50.938;13.556;2024-02-14T11:17:43;1.03;;;0.70;;
16922;SDS011;8578;50.938;13.556;2024-02-14T11:20:13;1.30;;;0.70;;
16922;SDS011;8578;50.938;13.556;2024-02-14T11:22:49;1.00;;;0.60;;
16922;SDS011;8578;50.938;13.556;2024-02-14T11:25:18;1.47;;;0.77;;
16922;SDS011;8578;50.938;13.556;2024-02-14T11:27:46;1.13;;;0.60;;
16922;SDS011;8578;50.938;13.556;2024-02-14T11:30:27;2.87;;;0.97;;
16922;SDS011;8578;50.938;13.556;2024-02-14T11:32:55;1.20;;;0.50;;
16922;SDS011;8578;50.938;13.556;2024-02-14T11:35:23;0.57;;;0.47;;
16922;SDS011;8578;50.938;13.556;2024-02-14T11:37:52;3.03;;;0.77;;
16922;SDS011;8578;50.938;13.556;2024-02-14T11:40:20;2.37;;;0.90;;
16922;SDS011;8578;50.938;13.556;2024-02-14T11:42:49;2.30;;;0.67;;
16922;SDS011;8578;50.938;13.556;2024-02-14T11:45:17;1.70;;;0.73;;
16922;SDS011;8578;50.938;13.556;2024-02-14T11:47:46;1.43;;;0.80;;
16922;SDS011;8578;50.938;13.556;2024-02-14T11:50:15;0.97;;;0.50;;
16922;SDS011;8578;50.938;13.556;2024-02-14T11:52:44;1.37;;;0.70;;
16922;SDS011;8578;50.938;13.556;2024-02-14T11:55:11;2.37;;;0.80;;
16922;SDS011;8578;50.938;13.556;2024-02-14T11:57:41;1.93;;;0.70;;
16922;SDS011;8578;50.938;13.556;2024-02-14T12:00:10;0.97;;;0.70;;
16922;SDS011;8578;50.938;13.556;2024-02-14T12:02:39;1.10;;;0.60;;
16922;SDS011;8578;50.938;13.556;2024-02-14T12:05:09;1.43;;;0.70;;
16922;SDS011;8578;50.938;13.556;2024-02-14T12:07:38;1.33;;;0.90;;
16922;SDS011;8578;50.938;13.556;2024-02-14T12:10:06;1.53;;;0.60;;
16922;SDS011;8578;50.938;13.556;2024-02-14T12:12:36;3.00;;;0.80;;
16922;SDS011;8578;50.938;13.556;2024-02-14T12:15:04;1.13;;;0.53;;
16922;SDS011;8578;50.938;13.556;2024-02-14T12:17:34;1.90;;;0.90;;
16922;SDS011;8578;50.938;13.556;2024-02-14T12:20:05;2.10;;;0.80;;
16922;SDS011;8578;50.938;13.556;2024-02-14T12:22:34;1.63;;;0.50;;
16922;SDS011;8578;50.938;13.556;2024-02-14T12:25:03;0.70;;;0.57;;
16922;SDS011;8578;50.938;13.556;2024-02-14T12:27:32;0.50;;;0.50;;
16922;SDS011;8578;50.938;13.556;2024-02-14T12:29:59;1.63;;;0.60;;
16922;SDS011;8578;50.938;13.556;2024-02-14T12:32:31;0.90;;;0.67;;
16922;SDS011;8578;50.938;13.556;2024-02-14T12:34:59;1.43;;;0.40;;
16922;SDS011;8578;50.938;13.556;2024-02-14T12:37:27;2.83;;;0.60;;
16922;SDS011;8578;50.938;13.556;2024-02-14T12:39:58;1.30;;;0.50;;
16922;SDS011;8578;50.938;13.556;2024-02-14T12:42:26;0.87;;;0.43;;
16922;SDS011;8578;50.938;13.556;2024-02-14T12:45:00;1.33;;;0.60;;
16922;SDS011;8578;50.938;13.556;2024-02-14T12:47:27;0.53;;;0.40;;
16922;SDS011;8578;50.938;13.556;2024-02-14T12:49:58;1.30;;;0.50;;
16922;SDS011;8578;50.938;13.556;2024-02-14T12:52:27;2.47;;;0.63;;
16922;SDS011;8578;50.938;13.556;2024-02-14T12:54:54;0.80;;;0.40;;
16922;SDS011;8578;50.938;13.556;2024-02-14T12:57:24;0.83;;;0.47;;
16922;SDS011;8578;50.938;13.556;2024-02-14T12:59:53;3.07;;;0.70;;
16922;SDS011;8578;50.938;13.556;2024-02-14T13:02:21;0.73;;;0.50;;
16922;SDS011;8578;50.938;13.556;2024-02-14T13:04:49;1.30;;;0.60;;
16922;SDS011;8578;50.938;13.556;2024-02-14T13:07:17;0.83;;;0.60;;
16922;SDS011;8578;50.938;13.556;2024-02-14T13:09:45;1.77;;;0.60;;
16922;SDS011;8578;50.938;13.556;2024-02-14T13:12:13;1.73;;;0.70;;
16922;SDS011;8578;50.938;13.556;2024-02-14T13:14:44;1.97;;;0.70;;
16922;SDS011;8578;50.938;13.556;2024-02-14T13:17:13;2.97;;;0.90;;
16922;SDS011;8578;50.938;13.556;2024-02-14T13:19:41;1.30;;;0.67;;
16922;SDS011;8578;50.938;13.556;2024-02-14T13:22:12;1.60;;;0.70;;
16922;SDS011;8578;50.938;13.556;2024-02-14T13:24:41;2.23;;;0.90;;
16922;SDS011;8578;50.938;13.556;2024-02-14T13:27:08;2.50;;;0.63;;
16922;SDS011;8578;50.938;13.556;2024-02-14T13:29:37;1.37;;;0.80;;
16922;SDS011;8578;50.938;13.556;2024-02-14T13:32:07;1.50;;;0.87;;
16922;SDS011;8578;50.938;13.556;2024-02-14T13:34:35;1.03;;;0.80;;
16922;SDS011;8578;50.938;13.556;2024-02-14T13:37:03;2.23;;;0.90;;
16922;SDS011;8578;50.938;13.556;2024-02-14T13:39:31;2.50;;;0.80;;
16922;SDS011;8578;50.938;13.556;2024-02-14T13:41:59;1.00;;;0.70;;
16922;SDS011;8578;50.938;13.556;2024-02-14T13:44:30;1.60;;;0.90;;
16922;SDS011;8578;50.938;13.556;2024-02-14T13:46:57;1.03;;;0.80;;
16922;SDS011;8578;50.938;13.556;2024-02-14T13:49:27;0.93;;;0.80;;
16922;SDS011;8578;50.938;13.556;2024-02-14T13:51:55;1.63;;;0.90;;
16922;SDS011;8578;50.938;13.556;2024-02-14T13:54:23;1.77;;;1.00;;
16922;SDS011;8578;50.938;13.556;2024-02-14T13:56:51;1.60;;;0.93;;
16922;SDS011;8578;50.938;13.556;2024-02-14T13:59:20;1.93;;;0.97;;
16922;SDS011;8578;50.938;13.556;2024-02-14T14:01:47;1.57;;;0.93;;
16922;SDS011;8578;50.938;13.556;2024-02-14T14:04:15;1.10;;;0.80;;
16922;SDS011;8578;50.938;13.556;2024-02-14T14:06:44;1.10;;;0.70;;
16922;SDS011;8578;50.938;13.556;2024-02-14T14:09:15;1.13;;;0.80;;
16922;SDS011;8578;50.938;13.556;2024-02-14T14:11:42;0.73;;;0.63;;
16922;SDS011;8578;50.938;13.556;2024-02-14T14:14:10;0.83;;;0.57;;
16922;SDS011;8578;50.938;13.556;2024-02-14T14:16:44;1.00;;;0.73;;
16922;SDS011;8578;50.938;13.556;2024-02-14T14:19:12;1.00;;;0.73;;
16922;SDS011;8578;50.938;13.556;2024-02-14T14:21:40;0.87;;;0.77;;
16922;SDS011;8578;50.938;13.556;2024-02-14T14:24:10;0.73;;;0.60;;
16922;SDS011;8578;50.938;13.556;2024-02-14T14:26:37;0.90;;;0.50;;
16922;SDS011;8578;50.938;13.556;2024-02-14T14:29:05;1.97;;;0.60;;
16922;SDS011;8578;50.938;13.556;2024-02-14T14:31:32;2.03;;;0.50;;
16922;SDS011;8578;50.938;13.556;2024-02-14T14:34:02;0.73;;;0.57;;
16922;SDS011;8578;50.938;13.556;2024-02-14T14:36:30;3.93;;;0.67;;
16922;SDS011;8578;50.938;13.556;2024-02-14T14:38:59;0.73;;;0.63;;
16922;SDS011;8578;50.938;13.556;2024-02-14T14:41:29;0.67;;;0.60;;
16922;SDS011;8578;50.938;13.556;2024-02-14T14:43:58;2.03;;;0.57;;
16922;SDS011;8578;50.938;13.556;2024-02-14T14:46:25;0.70;;;0.60;;
16922;SDS011;8578;50.938;13.556;2024-02-14T14:48:53;1.80;;;0.90;;
16922;SDS011;8578;50.938;13.556;2024-02-14T14:51:21;0.90;;;0.70;;
16922;SDS011;8578;50.938;13.556;2024-02-14T14:53:49;1.00;;;0.60;;